sensor_id;sensor_type;location;lat;lon;timestamp;pressure;altitude;pressure_sealevel;temperature;humidity
44441;BME280;30146;52.268;20.944;2023-08-30T00:01:19;99133.05;;;20.87;75.77
44441;BME280;30146;52.268;20.944;2023-08-30T00:03:47;99137.42;;;20.87;75.76
44441;BME280;30146;52.268;20.944;2023-08-30T00:06:16;99143.39;;;20.86;75.89
44441;BME280;30146;52.268;20.944;2023-08-30T00:08:44;99150.05;;;20.85;75.82
44441;BME280;30146;52.268;20.944;2023-08-30T00:11:13;99151.48;;;20.82;75.70
44441;BME280;30146;52.268;20.944;2023-08-30T00:13:42;99139.88;;;20.79;75.80
44441;BME280;30146;52.268;20.944;2023-08-30T00:16:10;99128.69;;;20.78;75.78
44441;BME280;30146;52.268;20.944;2023-08-30T00:18:40;99121.65;;;20.76;75.92
44441;BME280;30146;52.268;20.944;2023-08-30T00:21:09;99134.42;;;20.75;76.05
44441;BME280;30146;52.268;20.944;2023-08-30T00:23:37;99144.65;;;20.75;76.12
44441;BME280;30146;52.268;20.944;2023-08-30T00:26:05;99147.45;;;20.75;76.29
44441;BME280;30146;52.268;20.944;2023-08-30T00:28:33;99153.71;;;20.75;76.24
44441;BME280;30146;52.268;20.944;2023-08-30T00:31:02;99164.01;;;20.74;76.23
44441;BME280;30146;52.268;20.944;2023-08-30T00:33:30;99160.92;;;20.74;76.17
44441;BME280;30146;52.268;20.944;2023-08-30T00:35:59;99165.48;;;20.73;76.36
44441;BME280;30146;52.268;20.944;2023-08-30T00:38:28;99164.65;;;20.72;76.37
44441;BME280;30146;52.268;20.944;2023-08-30T00:40:56;99164.53;;;20.72;76.34
44441;BME280;30146;52.268;20.944;2023-08-30T00:43:26;99161.83;;;20.71;76.32
44441;BME280;30146;52.268;20.944;2023-08-30T00:45:55;99165.40;;;20.69;76.49
44441;BME280;30146;52.268;20.944;2023-08-30T00:48:24;99174.14;;;20.68;76.27
44441;BME280;30146;52.268;20.944;2023-08-30T00:50:52;99177.55;;;20.67;76.26
44441;BME280;30146;52.268;20.944;2023-08-30T00:53:21;99177.63;;;20.66;76.27
44441;BME280;30146;52.268;20.944;2023-08-30T00:55:49;99177.95;;;20.64;76.27
44441;BME280;30146;52.268;20.944;2023-08-30T00:58:18;99176.84;;;20.63;76.18
44441;BME280;30146;52.268;20.944;2023-08-30T01:00:46;99179.46;;;20.59;75.93
44441;BME280;30146;52.268;20.944;2023-08-30T01:03:17;99185.16;;;20.56;76.01
44441;BME280;30146;52.268;20.944;2023-08-30T01:05:46;99192.66;;;20.54;76.12
44441;BME280;30146;52.268;20.944;2023-08-30T01:08:14;99195.37;;;20.52;76.22
44441;BME280;30146;52.268;20.944;2023-08-30T01:10:53;99195.70;;;20.50;76.00
44441;BME280;30146;52.268;20.944;2023-08-30T01:13:25;99202.14;;;20.47;75.94
44441;BME280;30146;52.268;20.944;2023-08-30T01:15:58;99204.47;;;20.44;75.79
44441;BME280;30146;52.268;20.944;2023-08-30T01:18:31;99212.25;;;20.41;76.02
44441;BME280;30146;52.268;20.944;2023-08-30T01:21:02;99216.02;;;20.39;76.13
44441;BME280;30146;52.268;20.944;2023-08-30T01:23:39;99211.47;;;20.38;75.92
44441;BME280;30146;52.268;20.944;2023-08-30T01:26:13;99211.45;;;20.35;75.92
44441;BME280;30146;52.268;20.944;2023-08-30T01:28:46;99207.59;;;20.33;76.09
44441;BME280;30146;52.268;20.944;2023-08-30T01:31:16;99212.95;;;20.31;75.96
44441;BME280;30146;52.268;20.944;2023-08-30T01:33:46;99214.80;;;20.29;75.93
44441;BME280;30146;52.268;20.944;2023-08-30T01:36:16;99213.27;;;20.29;75.94
44441;BME280;30146;52.268;20.944;2023-08-30T01:38:45;99207.91;;;20.26;75.95
44441;BME280;30146;52.268;20.944;2023-08-30T01:41:14;99202.27;;;20.25;75.80
44441;BME280;30146;52.268;20.944;2023-08-30T01:43:44;99200.67;;;20.23;75.96
44441;BME280;30146;52.268;20.944;2023-08-30T01:46:12;99198.13;;;20.22;75.87
44441;BME280;30146;52.268;20.944;2023-08-30T01:48:42;99201.92;;;20.20;75.87
44441;BME280;30146;52.268;20.944;2023-08-30T01:51:10;99204.23;;;20.16;75.89
44441;BME280;30146;52.268;20.944;2023-08-30T01:53:39;99209.27;;;20.13;75.74
44441;BME280;30146;52.268;20.944;2023-08-30T01:56:08;99208.08;;;20.11;75.67
44441;BME280;30146;52.268;20.944;2023-08-30T01:58:36;99212.88;;;20.09;75.67
44441;BME280;30146;52.268;20.944;2023-08-30T02:01:05;99213.39;;;20.07;75.71
44441;BME280;30146;52.268;20.944;2023-08-30T02:03:33;99202.95;;;20.04;75.79
44441;BME280;30146;52.268;20.944;2023-08-30T02:06:07;99207.90;;;20.03;75.82
44441;BME280;30146;52.268;20.944;2023-08-30T02:08:40;99203.44;;;20.03;75.89
44441;BME280;30146;52.268;20.944;2023-08-30T02:11:13;99196.73;;;20.01;75.89
44441;BME280;30146;52.268;20.944;2023-08-30T02:13:43;99195.15;;;19.99;75.82
44441;BME280;30146;52.268;20.944;2023-08-30T02:16:13;99192.35;;;19.97;75.91
44441;BME280;30146;52.268;20.944;2023-08-30T02:18:43;99182.18;;;19.96;75.90
44441;BME280;30146;52.268;20.944;2023-08-30T02:21:12;99173.02;;;19.95;76.03
44441;BME280;30146;52.268;20.944;2023-08-30T02:23:40;99171.33;;;19.95;76.06
44441;BME280;30146;52.268;20.944;2023-08-30T02:26:09;99169.96;;;19.95;76.04
44441;BME280;30146;52.268;20.944;2023-08-30T02:28:37;99160.66;;;19.93;75.94
44441;BME280;30146;52.268;20.944;2023-08-30T02:31:07;99150.20;;;19.92;75.94
44441;BME280;30146;52.268;20.944;2023-08-30T02:33:35;99139.73;;;19.90;75.96
44441;BME280;30146;52.268;20.944;2023-08-30T02:36:05;99132.71;;;19.89;75.90
44441;BME280;30146;52.268;20.944;2023-08-30T02:38:34;99128.77;;;19.88;75.99
44441;BME280;30146;52.268;20.944;2023-08-30T02:41:02;99125.19;;;19.87;76.01
44441;BME280;30146;52.268;20.944;2023-08-30T02:43:30;99127.52;;;19.86;75.94
44441;BME280;30146;52.268;20.944;2023-08-30T02:45:58;99120.64;;;19.85;75.99
44441;BME280;30146;52.268;20.944;2023-08-30T02:48:28;99115.02;;;19.84;75.80
44441;BME280;30146;52.268;20.944;2023-08-30T02:50:57;99102.89;;;19.81;75.88
44441;BME280;30146;52.268;20.944;2023-08-30T02:53:26;99094.36;;;19.79;75.92
44441;BME280;30146;52.268;20.944;2023-08-30T02:55:54;99084.34;;;19.76;75.92
44441;BME280;30146;52.268;20.944;2023-08-30T02:58:23;99085.85;;;19.73;75.74
44441;BME280;30146;52.268;20.944;2023-08-30T03:00:54;99091.42;;;19.70;75.74
44441;BME280;30146;52.268;20.944;2023-08-30T03:03:22;99095.50;;;19.69;75.87
44441;BME280;30146;52.268;20.944;2023-08-30T03:05:51;99088.02;;;19.67;75.81
44441;BME280;30146;52.268;20.944;2023-08-30T03:08:19;99081.04;;;19.65;75.89
44441;BME280;30146;52.268;20.944;2023-08-30T03:10:47;99086.86;;;19.63;76.11
44441;BME280;30146;52.268;20.944;2023-08-30T03:13:16;99092.10;;;19.60;75.97
44441;BME280;30146;52.268;20.944;2023-08-30T03:15:45;99097.99;;;19.58;76.00
44441;BME280;30146;52.268;20.944;2023-08-30T03:18:13;99098.65;;;19.56;75.82
44441;BME280;30146;52.268;20.944;2023-08-30T03:20:41;99101.24;;;19.53;76.04
44441;BME280;30146;52.268;20.944;2023-08-30T03:23:10;99099.30;;;19.51;75.96
44441;BME280;30146;52.268;20.944;2023-08-30T03:25:38;99096.71;;;19.48;76.15
44441;BME280;30146;52.268;20.944;2023-08-30T03:28:07;99116.64;;;19.46;76.01
44441;BME280;30146;52.268;20.944;2023-08-30T03:30:35;99117.63;;;19.41;75.98
44441;BME280;30146;52.268;20.944;2023-08-30T03:33:04;99114.40;;;19.37;76.08
44441;BME280;30146;52.268;20.944;2023-08-30T03:35:35;99112.19;;;19.34;76.16
44441;BME280;30146;52.268;20.944;2023-08-30T03:38:03;99111.47;;;19.32;76.12
44441;BME280;30146;52.268;20.944;2023-08-30T03:40:32;99113.52;;;19.30;76.22
44441;BME280;30146;52.268;20.944;2023-08-30T03:43:00;99110.14;;;19.28;76.23
44441;BME280;30146;52.268;20.944;2023-08-30T03:45:29;99112.63;;;19.28;76.46
44441;BME280;30146;52.268;20.944;2023-08-30T03:47:59;99110.61;;;19.27;76.39
44441;BME280;30146;52.268;20.944;2023-08-30T03:50:28;99106.52;;;19.26;76.50
44441;BME280;30146;52.268;20.944;2023-08-30T03:52:56;99105.13;;;19.26;76.56
44441;BME280;30146;52.268;20.944;2023-08-30T03:55:24;99110.75;;;19.24;76.48
44441;BME280;30146;52.268;20.944;2023-08-30T03:57:53;99110.63;;;19.23;76.53
44441;BME280;30146;52.268;20.944;2023-08-30T04:00:21;99112.79;;;19.22;76.61
44441;BME280;30146;52.268;20.944;2023-08-30T04:02:51;99108.85;;;19.22;76.60
44441;BME280;30146;52.268;20.944;2023-08-30T04:05:19;99109.77;;;19.21;76.67
44441;BME280;30146;52.268;20.944;2023-08-30T04:07:48;99110.86;;;19.20;76.56
44441;BME280;30146;52.268;20.944;2023-08-30T04:10:17;99106.92;;;19.19;76.63
44441;BME280;30146;52.268;20.944;2023-08-30T04:12:45;99111.23;;;19.19;76.80
44441;BME280;30146;52.268;20.944;2023-08-30T04:15:13;99108.95;;;19.20;76.85
44441;BME280;30146;52.268;20.944;2023-08-30T04:17:42;99108.81;;;19.22;76.77
44441;BME280;30146;52.268;20.944;2023-08-30T04:20:11;99111.20;;;19.22;76.91
44441;BME280;30146;52.268;20.944;2023-08-30T04:22:40;99118.83;;;19.25;76.85
44441;BME280;30146;52.268;20.944;2023-08-30T04:25:09;99119.40;;;19.30;77.08
44441;BME280;30146;52.268;20.944;2023-08-30T04:27:38;99111.18;;;19.34;77.16
44441;BME280;30146;52.268;20.944;2023-08-30T04:30:09;99104.08;;;19.36;77.00
44441;BME280;30146;52.268;20.944;2023-08-30T04:32:37;99104.48;;;19.38;77.10
44441;BME280;30146;52.268;20.944;2023-08-30T04:35:08;99107.48;;;19.40;76.97
44441;BME280;30146;52.268;20.944;2023-08-30T04:37:39;99111.34;;;19.41;76.92
44441;BME280;30146;52.268;20.944;2023-08-30T04:40:09;99114.85;;;19.44;76.95
44441;BME280;30146;52.268;20.944;2023-08-30T04:42:39;99118.89;;;19.46;76.75
44441;BME280;30146;52.268;20.944;2023-08-30T04:45:16;99113.34;;;19.49;76.95
44441;BME280;30146;52.268;20.944;2023-08-30T04:47:44;99107.48;;;19.51;76.92
44441;BME280;30146;52.268;20.944;2023-08-30T04:50:14;99105.08;;;19.53;76.90
44441;BME280;30146;52.268;20.944;2023-08-30T04:52:43;99113.43;;;19.55;76.82
44441;BME280;30146;52.268;20.944;2023-08-30T04:55:12;99132.06;;;19.56;76.58
44441;BME280;30146;52.268;20.944;2023-08-30T04:57:46;99140.36;;;19.57;76.53
44441;BME280;30146;52.268;20.944;2023-08-30T05:00:18;99141.10;;;19.58;76.52
44441;BME280;30146;52.268;20.944;2023-08-30T05:02:47;99146.14;;;19.61;76.72
44441;BME280;30146;52.268;20.944;2023-08-30T05:05:16;99148.17;;;19.61;76.58
44441;BME280;30146;52.268;20.944;2023-08-30T05:07:45;99151.07;;;19.62;76.48
44441;BME280;30146;52.268;20.944;2023-08-30T05:10:14;99159.80;;;19.64;76.60
44441;BME280;30146;52.268;20.944;2023-08-30T05:12:44;99169.05;;;19.66;76.56
44441;BME280;30146;52.268;20.944;2023-08-30T05:15:17;99174.49;;;19.67;76.50
44441;BME280;30146;52.268;20.944;2023-08-30T05:17:50;99174.34;;;19.67;76.35
44441;BME280;30146;52.268;20.944;2023-08-30T05:20:19;99171.91;;;19.67;76.27
44441;BME280;30146;52.268;20.944;2023-08-30T05:22:51;99175.84;;;19.68;76.42
44441;BME280;30146;52.268;20.944;2023-08-30T05:25:20;99180.27;;;19.69;76.48
44441;BME280;30146;52.268;20.944;2023-08-30T05:27:48;99191.48;;;19.70;76.44
44441;BME280;30146;52.268;20.944;2023-08-30T05:30:17;99196.04;;;19.72;76.33
44441;BME280;30146;52.268;20.944;2023-08-30T05:32:45;99190.93;;;19.74;76.41
44441;BME280;30146;52.268;20.944;2023-08-30T05:35:39;99197.20;;;19.76;76.46
44441;BME280;30146;52.268;20.944;2023-08-30T05:38:29;99201.29;;;19.77;76.17
44441;BME280;30146;52.268;20.944;2023-08-30T05:41:03;99203.29;;;19.78;76.19
44441;BME280;30146;52.268;20.944;2023-08-30T05:43:31;99200.77;;;19.80;76.19
44441;BME280;30146;52.268;20.944;2023-08-30T05:46:01;99201.76;;;19.83;76.49
44441;BME280;30146;52.268;20.944;2023-08-30T05:48:30;99203.01;;;19.86;76.22
44441;BME280;30146;52.268;20.944;2023-08-30T05:50:59;99203.33;;;19.88;76.24
44441;BME280;30146;52.268;20.944;2023-08-30T05:53:28;99200.41;;;19.90;76.04
44441;BME280;30146;52.268;20.944;2023-08-30T05:55:57;99207.95;;;19.91;75.97
44441;BME280;30146;52.268;20.944;2023-08-30T05:58:26;99210.58;;;19.94;76.09
44441;BME280;30146;52.268;20.944;2023-08-30T06:00:55;99213.43;;;19.95;75.94
44441;BME280;30146;52.268;20.944;2023-08-30T06:03:24;99211.23;;;19.97;75.79
44441;BME280;30146;52.268;20.944;2023-08-30T06:06:10;99215.61;;;19.99;75.91
44441;BME280;30146;52.268;20.944;2023-08-30T06:08:43;99219.31;;;20.01;75.75
44441;BME280;30146;52.268;20.944;2023-08-30T06:11:12;99213.09;;;20.03;75.85
44441;BME280;30146;52.268;20.944;2023-08-30T06:13:41;99214.02;;;20.05;75.69
44441;BME280;30146;52.268;20.944;2023-08-30T06:16:13;99207.95;;;20.07;75.56
44441;BME280;30146;52.268;20.944;2023-08-30T06:18:41;99205.03;;;20.09;75.30
44441;BME280;30146;52.268;20.944;2023-08-30T06:21:10;99206.20;;;20.10;75.24
44441;BME280;30146;52.268;20.944;2023-08-30T06:23:39;99205.55;;;20.12;75.22
44441;BME280;30146;52.268;20.944;2023-08-30T06:26:07;99206.20;;;20.12;75.05
44441;BME280;30146;52.268;20.944;2023-08-30T06:28:36;99206.24;;;20.12;74.87
44441;BME280;30146;52.268;20.944;2023-08-30T06:31:06;99201.42;;;20.11;74.78
44441;BME280;30146;52.268;20.944;2023-08-30T06:33:34;99200.25;;;20.11;75.06
44441;BME280;30146;52.268;20.944;2023-08-30T06:36:04;99201.09;;;20.11;75.06
44441;BME280;30146;52.268;20.944;2023-08-30T06:38:33;99197.38;;;20.10;74.79
44441;BME280;30146;52.268;20.944;2023-08-30T06:41:01;99198.32;;;20.09;74.71
44441;BME280;30146;52.268;20.944;2023-08-30T06:43:30;99201.20;;;20.07;74.80
44441;BME280;30146;52.268;20.944;2023-08-30T06:45:59;99205.77;;;20.06;74.77
44441;BME280;30146;52.268;20.944;2023-08-30T06:48:28;99208.89;;;20.06;74.86
44441;BME280;30146;52.268;20.944;2023-08-30T06:50:59;99210.52;;;20.05;74.78
44441;BME280;30146;52.268;20.944;2023-08-30T06:53:27;99211.56;;;20.05;74.92
44441;BME280;30146;52.268;20.944;2023-08-30T06:56:03;99212.99;;;20.05;74.87
44441;BME280;30146;52.268;20.944;2023-08-30T06:58:31;99214.59;;;20.04;74.99
44441;BME280;30146;52.268;20.944;2023-08-30T07:01:00;99212.48;;;20.05;74.91
44441;BME280;30146;52.268;20.944;2023-08-30T07:03:28;99212.85;;;20.04;74.93
44441;BME280;30146;52.268;20.944;2023-08-30T07:05:58;99213.90;;;20.04;74.99
44441;BME280;30146;52.268;20.944;2023-08-30T07:08:26;99210.92;;;20.04;74.90
44441;BME280;30146;52.268;20.944;2023-08-30T07:10:55;99210.65;;;20.03;74.75
44441;BME280;30146;52.268;20.944;2023-08-30T07:13:24;99211.69;;;20.03;74.87
44441;BME280;30146;52.268;20.944;2023-08-30T07:15:52;99215.85;;;20.03;75.00
44441;BME280;30146;52.268;20.944;2023-08-30T07:18:21;99221.15;;;20.05;74.93
44441;BME280;30146;52.268;20.944;2023-08-30T07:20:50;99221.66;;;20.05;75.06
44441;BME280;30146;52.268;20.944;2023-08-30T07:23:19;99222.31;;;20.05;74.98
44441;BME280;30146;52.268;20.944;2023-08-30T07:25:48;99224.27;;;20.05;74.85
44441;BME280;30146;52.268;20.944;2023-08-30T07:28:19;99224.31;;;20.04;74.88
44441;BME280;30146;52.268;20.944;2023-08-30T07:30:47;99225.05;;;20.03;74.86
44441;BME280;30146;52.268;20.944;2023-08-30T07:33:16;99222.45;;;20.03;74.89
44441;BME280;30146;52.268;20.944;2023-08-30T07:35:45;99221.15;;;20.02;74.82
44441;BME280;30146;52.268;20.944;2023-08-30T07:38:13;99217.38;;;20.01;74.73
44441;BME280;30146;52.268;20.944;2023-08-30T07:40:42;99215.91;;;20.00;74.71
44441;BME280;30146;52.268;20.944;2023-08-30T07:43:11;99216.83;;;19.99;74.67
44441;BME280;30146;52.268;20.944;2023-08-30T07:45:39;99214.08;;;19.96;74.63
44441;BME280;30146;52.268;20.944;2023-08-30T07:48:08;99217.05;;;19.95;74.72
44441;BME280;30146;52.268;20.944;2023-08-30T07:50:37;99214.71;;;19.94;74.69
44441;BME280;30146;52.268;20.944;2023-08-30T07:53:05;99215.16;;;19.93;74.60
44441;BME280;30146;52.268;20.944;2023-08-30T07:55:35;99215.58;;;19.92;74.96
44441;BME280;30146;52.268;20.944;2023-08-30T07:58:04;99222.81;;;19.93;75.12
44441;BME280;30146;52.268;20.944;2023-08-30T08:00:33;99229.34;;;19.94;75.26
44441;BME280;30146;52.268;20.944;2023-08-30T08:03:02;99224.59;;;19.94;75.37
44441;BME280;30146;52.268;20.944;2023-08-30T08:05:31;99224.70;;;19.95;75.38
44441;BME280;30146;52.268;20.944;2023-08-30T08:08:00;99223.83;;;19.96;75.21
44441;BME280;30146;52.268;20.944;2023-08-30T08:10:32;99225.00;;;19.96;75.42
44441;BME280;30146;52.268;20.944;2023-08-30T08:13:01;99230.35;;;19.96;75.48
44441;BME280;30146;52.268;20.944;2023-08-30T08:15:30;99228.69;;;19.95;75.47
44441;BME280;30146;52.268;20.944;2023-08-30T08:18:00;99223.36;;;19.95;75.57
44441;BME280;30146;52.268;20.944;2023-08-30T08:20:30;99217.63;;;19.95;75.58
44441;BME280;30146;52.268;20.944;2023-08-30T08:22:58;99219.09;;;19.96;75.64
44441;BME280;30146;52.268;20.944;2023-08-30T08:25:26;99220.78;;;19.97;75.78
44441;BME280;30146;52.268;20.944;2023-08-30T08:27:55;99216.10;;;19.97;75.71
44441;BME280;30146;52.268;20.944;2023-08-30T08:30:24;99217.64;;;19.97;75.92
44441;BME280;30146;52.268;20.944;2023-08-30T08:32:53;99220.54;;;19.98;75.94
44441;BME280;30146;52.268;20.944;2023-08-30T08:35:22;99216.25;;;19.97;75.87
44441;BME280;30146;52.268;20.944;2023-08-30T08:37:51;99203.29;;;19.97;75.87
44441;BME280;30146;52.268;20.944;2023-08-30T08:40:20;99200.22;;;19.96;75.71
44441;BME280;30146;52.268;20.944;2023-08-30T08:43:11;99199.98;;;19.94;75.66
44441;BME280;30146;52.268;20.944;2023-08-30T08:45:40;99202.56;;;19.92;75.65
44441;BME280;30146;52.268;20.944;2023-08-30T08:48:10;99203.90;;;19.90;75.89
44441;BME280;30146;52.268;20.944;2023-08-30T08:50:40;99201.38;;;19.89;75.84
44441;BME280;30146;52.268;20.944;2023-08-30T08:53:09;99205.80;;;19.87;75.82
44441;BME280;30146;52.268;20.944;2023-08-30T08:55:38;99205.71;;;19.86;75.94
44441;BME280;30146;52.268;20.944;2023-08-30T08:58:08;99207.85;;;19.86;75.94
44441;BME280;30146;52.268;20.944;2023-08-30T09:00:38;99204.96;;;19.85;76.01
44441;BME280;30146;52.268;20.944;2023-08-30T09:03:07;99208.32;;;19.84;75.96
44441;BME280;30146;52.268;20.944;2023-08-30T09:05:40;99207.64;;;19.80;75.88
44441;BME280;30146;52.268;20.944;2023-08-30T09:08:10;99207.64;;;19.78;75.74
44441;BME280;30146;52.268;20.944;2023-08-30T09:10:41;99206.00;;;19.76;76.15
44441;BME280;30146;52.268;20.944;2023-08-30T09:13:09;99205.39;;;19.78;76.14
44441;BME280;30146;52.268;20.944;2023-08-30T09:15:39;99202.85;;;19.77;76.07
44441;BME280;30146;52.268;20.944;2023-08-30T09:18:16;99198.73;;;19.76;76.11
44441;BME280;30146;52.268;20.944;2023-08-30T09:20:44;99192.95;;;19.77;76.15
44441;BME280;30146;52.268;20.944;2023-08-30T09:23:20;99195.56;;;19.77;75.79
44441;BME280;30146;52.268;20.944;2023-08-30T09:25:54;99194.02;;;19.77;75.90
44441;BME280;30146;52.268;20.944;2023-08-30T09:28:23;99194.66;;;19.77;76.08
44441;BME280;30146;52.268;20.944;2023-08-30T09:30:52;99196.99;;;19.79;76.00
44441;BME280;30146;52.268;20.944;2023-08-30T09:33:22;99199.93;;;19.82;76.13
44441;BME280;30146;52.268;20.944;2023-08-30T09:35:50;99201.96;;;19.85;76.16
44441;BME280;30146;52.268;20.944;2023-08-30T09:38:19;99203.58;;;19.90;76.32
44441;BME280;30146;52.268;20.944;2023-08-30T09:40:47;99206.11;;;19.93;76.04
44441;BME280;30146;52.268;20.944;2023-08-30T09:43:19;99207.16;;;19.95;76.06
44441;BME280;30146;52.268;20.944;2023-08-30T09:45:50;99208.36;;;19.98;75.92
44441;BME280;30146;52.268;20.944;2023-08-30T09:48:21;99207.81;;;20.02;75.87
44441;BME280;30146;52.268;20.944;2023-08-30T09:50:53;99206.91;;;20.05;75.85
44441;BME280;30146;52.268;20.944;2023-08-30T09:53:26;99203.25;;;20.05;75.89
44441;BME280;30146;52.268;20.944;2023-08-30T09:55:55;99203.83;;;20.07;75.89
44441;BME280;30146;52.268;20.944;2023-08-30T09:58:25;99202.70;;;20.08;75.85
44441;BME280;30146;52.268;20.944;2023-08-30T10:00:55;99205.25;;;20.09;75.89
44441;BME280;30146;52.268;20.944;2023-08-30T10:03:24;99209.52;;;20.10;75.89
44441;BME280;30146;52.268;20.944;2023-08-30T10:06:00;99208.80;;;20.10;76.01
44441;BME280;30146;52.268;20.944;2023-08-30T10:08:34;99211.58;;;20.08;75.45
44441;BME280;30146;52.268;20.944;2023-08-30T10:11:07;99217.34;;;20.07;75.60
44441;BME280;30146;52.268;20.944;2023-08-30T10:13:39;99220.31;;;20.07;75.68
44441;BME280;30146;52.268;20.944;2023-08-30T10:16:15;99224.39;;;20.08;75.83
44441;BME280;30146;52.268;20.944;2023-08-30T10:18:48;99220.50;;;20.09;75.93
44441;BME280;30146;52.268;20.944;2023-08-30T10:21:35;99216.88;;;20.11;75.85
44441;BME280;30146;52.268;20.944;2023-08-30T10:24:08;99207.90;;;20.13;75.95
44441;BME280;30146;52.268;20.944;2023-08-30T10:27:01;99203.78;;;20.15;75.98
44441;BME280;30146;52.268;20.944;2023-08-30T10:29:34;99203.76;;;20.18;75.95
44441;BME280;30146;52.268;20.944;2023-08-30T10:32:04;99191.30;;;20.23;76.04
44441;BME280;30146;52.268;20.944;2023-08-30T10:34:34;99186.35;;;20.27;76.16
44441;BME280;30146;52.268;20.944;2023-08-30T10:37:07;99193.00;;;20.31;75.88
44441;BME280;30146;52.268;20.944;2023-08-30T10:39:37;99192.28;;;20.31;75.47
44441;BME280;30146;52.268;20.944;2023-08-30T10:42:10;99186.89;;;20.32;75.55
44441;BME280;30146;52.268;20.944;2023-08-30T10:44:49;99181.33;;;20.34;75.77
44441;BME280;30146;52.268;20.944;2023-08-30T10:47:39;99182.02;;;20.39;75.90
44441;BME280;30146;52.268;20.944;2023-08-30T10:50:11;99184.00;;;20.43;75.69
44441;BME280;30146;52.268;20.944;2023-08-30T10:52:40;99186.06;;;20.46;75.73
44441;BME280;30146;52.268;20.944;2023-08-30T10:55:11;99181.20;;;20.49;75.54
44441;BME280;30146;52.268;20.944;2023-08-30T10:57:43;99186.51;;;20.50;75.46
44441;BME280;30146;52.268;20.944;2023-08-30T11:00:19;99186.14;;;20.52;75.50
44441;BME280;30146;52.268;20.944;2023-08-30T11:02:50;99185.76;;;20.55;75.61
44441;BME280;30146;52.268;20.944;2023-08-30T11:05:20;99189.35;;;20.60;75.64
44441;BME280;30146;52.268;20.944;2023-08-30T11:07:49;99192.52;;;20.64;75.71
44441;BME280;30146;52.268;20.944;2023-08-30T11:10:20;99192.14;;;20.67;75.77
44441;BME280;30146;52.268;20.944;2023-08-30T11:12:49;99196.92;;;20.68;75.45
44441;BME280;30146;52.268;20.944;2023-08-30T11:15:18;99197.73;;;20.69;75.30
44441;BME280;30146;52.268;20.944;2023-08-30T11:17:48;99201.48;;;20.70;75.48
44441;BME280;30146;52.268;20.944;2023-08-30T11:20:17;99203.69;;;20.71;75.51
44441;BME280;30146;52.268;20.944;2023-08-30T11:22:48;99205.98;;;20.70;75.44
44441;BME280;30146;52.268;20.944;2023-08-30T11:25:18;99208.19;;;20.71;75.42
44441;BME280;30146;52.268;20.944;2023-08-30T11:27:48;99208.95;;;20.72;75.46
44441;BME280;30146;52.268;20.944;2023-08-30T11:30:16;99208.29;;;20.74;75.58
44441;BME280;30146;52.268;20.944;2023-08-30T11:32:47;99210.36;;;20.77;75.48
44441;BME280;30146;52.268;20.944;2023-08-30T11:35:16;99209.55;;;20.79;75.37
44441;BME280;30146;52.268;20.944;2023-08-30T11:37:45;99213.04;;;20.81;75.39
44441;BME280;30146;52.268;20.944;2023-08-30T11:40:15;99212.48;;;20.84;75.39
44441;BME280;30146;52.268;20.944;2023-08-30T11:42:44;99210.86;;;20.87;75.50
44441;BME280;30146;52.268;20.944;2023-08-30T11:45:14;99207.91;;;20.89;75.33
44441;BME280;30146;52.268;20.944;2023-08-30T11:47:43;99209.14;;;20.92;75.37
44441;BME280;30146;52.268;20.944;2023-08-30T11:50:13;99208.04;;;20.95;75.39
44441;BME280;30146;52.268;20.944;2023-08-30T11:52:42;99202.73;;;20.96;75.28
44441;BME280;30146;52.268;20.944;2023-08-30T11:55:11;99203.48;;;20.98;75.26
44441;BME280;30146;52.268;20.944;2023-08-30T11:57:44;99202.39;;;20.99;75.25
44441;BME280;30146;52.268;20.944;2023-08-30T12:00:14;99207.30;;;21.01;75.29
44441;BME280;30146;52.268;20.944;2023-08-30T12:02:43;99210.39;;;21.04;75.28
44441;BME280;30146;52.268;20.944;2023-08-30T12:05:13;99212.46;;;21.06;75.23
44441;BME280;30146;52.268;20.944;2023-08-30T12:07:42;99215.33;;;21.10;75.16
44441;BME280;30146;52.268;20.944;2023-08-30T12:10:11;99214.59;;;21.13;75.27
44441;BME280;30146;52.268;20.944;2023-08-30T12:12:45;99220.33;;;21.15;75.18
44441;BME280;30146;52.268;20.944;2023-08-30T12:15:14;99219.86;;;21.15;74.88
44441;BME280;30146;52.268;20.944;2023-08-30T12:17:43;99225.53;;;21.13;74.60
44441;BME280;30146;52.268;20.944;2023-08-30T12:20:18;99226.95;;;21.10;74.34
44441;BME280;30146;52.268;20.944;2023-08-30T12:22:50;99222.98;;;21.05;74.46
44441;BME280;30146;52.268;20.944;2023-08-30T12:25:21;99223.98;;;21.03;74.80
44441;BME280;30146;52.268;20.944;2023-08-30T12:27:51;99220.23;;;21.02;74.86
44441;BME280;30146;52.268;20.944;2023-08-30T12:30:20;99217.05;;;21.01;74.73
44441;BME280;30146;52.268;20.944;2023-08-30T12:32:49;99221.87;;;20.96;74.44
44441;BME280;30146;52.268;20.944;2023-08-30T12:35:17;99220.77;;;20.92;74.71
44441;BME280;30146;52.268;20.944;2023-08-30T12:37:46;99219.46;;;20.88;74.63
44441;BME280;30146;52.268;20.944;2023-08-30T12:40:14;99224.04;;;20.85;74.41
44441;BME280;30146;52.268;20.944;2023-08-30T12:42:43;99224.51;;;20.84;74.79
44441;BME280;30146;52.268;20.944;2023-08-30T12:45:12;99220.98;;;20.82;74.81
44441;BME280;30146;52.268;20.944;2023-08-30T12:47:40;99220.92;;;20.82;74.89
44441;BME280;30146;52.268;20.944;2023-08-30T12:50:09;99221.30;;;20.82;74.76
44441;BME280;30146;52.268;20.944;2023-08-30T12:52:39;99223.42;;;20.81;74.88
44441;BME280;30146;52.268;20.944;2023-08-30T12:55:08;99223.03;;;20.80;74.70
44441;BME280;30146;52.268;20.944;2023-08-30T12:57:38;99221.33;;;20.79;74.72
44441;BME280;30146;52.268;20.944;2023-08-30T13:00:09;99218.08;;;20.79;74.73
44441;BME280;30146;52.268;20.944;2023-08-30T13:02:41;99220.38;;;20.80;75.06
44441;BME280;30146;52.268;20.944;2023-08-30T13:05:10;99218.36;;;20.82;74.97